createdAt,value
2019-05-29T00:00:24.335Z,10.20
2019-05-29T00:00:58.061Z,10.20
2019-05-29T00:01:31.464Z,10.20
2019-05-29T00:02:05.880Z,10.20
2019-05-29T00:02:39.387Z,10.20
2019-05-29T00:03:12.738Z,10.20
2019-05-29T00:03:46.430Z,10.10
2019-05-29T00:04:19.913Z,10.20
2019-05-29T00:04:53.429Z,10.20
2019-05-29T00:05:26.604Z,10.20
2019-05-29T00:06:00.403Z,10.20
2019-05-29T00:06:34.241Z,10.10
2019-05-29T00:07:08.050Z,10.10
2019-05-29T00:07:41.233Z,10.20
2019-05-29T00:08:14.705Z,10.20
2019-05-29T00:08:48.282Z,10.10
2019-05-29T00:09:21.764Z,10.10
2019-05-29T00:09:55.438Z,10.10
2019-05-29T00:10:28.867Z,10.10
2019-05-29T00:11:02.293Z,10.10
2019-05-29T00:11:35.484Z,10.10
2019-05-29T00:12:13.660Z,10.10
2019-05-29T00:12:43.827Z,10.10
2019-05-29T00:13:18.501Z,10.10
2019-05-29T00:13:51.923Z,10.10
2019-05-29T00:14:27.520Z,10.10
2019-05-29T00:15:00.430Z,10.00
2019-05-29T00:15:33.586Z,10.00
2019-05-29T00:16:06.383Z,10.00
2019-05-29T00:16:39.553Z,10.00
2019-05-29T00:17:14.587Z,10.00
2019-05-29T00:17:47.930Z,9.90
2019-05-29T00:18:21.275Z,10.00
2019-05-29T00:18:58.170Z,10.00
2019-05-29T00:19:30.050Z,9.90
2019-05-29T00:20:03.403Z,10.00
2019-05-29T00:20:36.640Z,9.90
2019-05-29T00:21:11.581Z,9.90
2019-05-29T00:21:45.118Z,9.90
2019-05-29T00:22:18.632Z,9.90
2019-05-29T00:22:51.860Z,9.80
2019-05-29T00:23:25.266Z,9.80
2019-05-29T00:23:58.648Z,9.80
2019-05-29T00:24:31.959Z,9.80
2019-05-29T00:25:06.403Z,9.80
2019-05-29T00:25:39.741Z,9.80
2019-05-29T00:26:12.923Z,9.80
2019-05-29T00:26:46.279Z,9.80
2019-05-29T00:27:19.592Z,9.80
2019-05-29T00:27:52.868Z,9.80
2019-05-29T00:28:26.324Z,9.80
2019-05-29T00:28:59.812Z,9.80
2019-05-29T00:29:33.344Z,9.80
2019-05-29T00:30:07.024Z,9.80
2019-05-29T00:30:40.195Z,9.80
2019-05-29T00:31:13.989Z,9.80
2019-05-29T00:31:47.542Z,9.80
2019-05-29T00:32:20.923Z,9.80
2019-05-29T00:32:54.439Z,9.80
2019-05-29T00:33:27.968Z,9.80
2019-05-29T00:34:01.964Z,9.70
2019-05-29T00:34:35.208Z,9.70
2019-05-29T00:35:08.556Z,9.70
2019-05-29T00:35:41.260Z,9.70
2019-05-29T00:36:16.433Z,9.70
2019-05-29T00:36:49.851Z,9.70
2019-05-29T00:37:22.943Z,9.70
2019-05-29T00:37:55.834Z,9.70
2019-05-29T00:38:28.618Z,9.70
2019-05-29T00:39:01.482Z,9.80
2019-05-29T00:39:34.336Z,9.80
2019-05-29T00:40:08.752Z,9.70
2019-05-29T00:40:43.629Z,9.70
2019-05-29T00:41:18.113Z,9.70
2019-05-29T00:41:51.018Z,9.70
2019-05-29T00:42:24.079Z,9.70
2019-05-29T00:42:56.841Z,9.70
2019-05-29T00:43:29.574Z,9.60
2019-05-29T00:44:03.218Z,9.70
2019-05-29T00:44:36.175Z,9.70
2019-05-29T00:45:11.490Z,9.70
2019-05-29T00:45:45.890Z,9.70
2019-05-29T00:46:19.092Z,9.60
2019-05-29T00:46:51.807Z,9.60
2019-05-29T00:47:25.015Z,9.60
2019-05-29T00:47:59.561Z,9.60
2019-05-29T00:48:33.747Z,9.60
2019-05-29T00:49:09.659Z,9.60
2019-05-29T00:49:42.347Z,9.60
2019-05-29T00:50:16.142Z,9.60
2019-05-29T00:50:51.810Z,9.60
2019-05-29T00:51:24.673Z,9.60
2019-05-29T00:51:58.883Z,9.60
2019-05-29T00:52:31.832Z,9.60
2019-05-29T00:53:04.587Z,9.60
2019-05-29T00:53:37.814Z,9.60
2019-05-29T00:54:12.532Z,9.60
2019-05-29T00:54:46.394Z,9.50
2019-05-29T00:55:19.844Z,9.50
2019-05-29T00:55:52.535Z,9.50
2019-05-29T00:56:25.820Z,9.50
2019-05-29T00:56:58.527Z,9.50
2019-05-29T00:57:33.590Z,9.50
2019-05-29T00:58:08.800Z,9.50
2019-05-29T00:58:41.604Z,9.50
2019-05-29T00:59:15.754Z,9.40
2019-05-29T00:59:49.003Z,9.50
2019-05-29T01:00:22.463Z,9.50
2019-05-29T01:00:56.474Z,9.50
2019-05-29T01:01:30.330Z,9.40
2019-05-29T01:02:03.016Z,9.50
2019-05-29T01:02:37.572Z,9.40
2019-05-29T01:03:12.171Z,9.40
2019-05-29T01:03:44.739Z,9.40
2019-05-29T01:04:17.873Z,9.40
2019-05-29T01:04:52.559Z,9.40
2019-05-29T01:05:26.219Z,9.40
2019-05-29T01:06:00.617Z,9.40
2019-05-29T01:06:35.481Z,9.40
2019-05-29T01:07:10.220Z,9.40
2019-05-29T01:07:43.050Z,9.40
2019-05-29T01:08:18.455Z,9.40
2019-05-29T01:08:51.323Z,9.40
2019-05-29T01:09:26.002Z,9.50
2019-05-29T01:10:01.489Z,9.40
2019-05-29T01:10:35.456Z,9.40
2019-05-29T01:11:08.272Z,9.40
2019-05-29T01:11:40.951Z,9.50
2019-05-29T01:12:14.784Z,9.40
2019-05-29T01:12:49.406Z,9.50
2019-05-29T01:13:24.499Z,9.50
2019-05-29T01:13:57.479Z,9.50
2019-05-29T01:14:30.461Z,9.40
2019-05-29T01:15:03.630Z,9.40
2019-05-29T01:15:39.662Z,9.50
2019-05-29T01:16:13.350Z,9.40
2019-05-29T01:16:46.471Z,9.40
2019-05-29T01:17:19.788Z,9.40
2019-05-29T01:17:52.890Z,9.40
2019-05-29T01:18:25.643Z,9.40
2019-05-29T01:19:18.215Z,9.40
2019-05-29T01:19:51.020Z,9.30
2019-05-29T01:20:23.916Z,9.30
2019-05-29T01:20:56.682Z,9.30
2019-05-29T01:21:30.087Z,9.30
2019-05-29T01:22:03.146Z,9.30
2019-05-29T01:22:37.035Z,9.30
2019-05-29T01:23:09.752Z,9.30
2019-05-29T01:23:42.797Z,9.30
2019-05-29T01:24:18.355Z,9.30
2019-05-29T01:24:51.157Z,9.20
2019-05-29T01:25:23.964Z,9.10
2019-05-29T01:25:56.839Z,9.10
2019-05-29T01:26:29.563Z,9.10
2019-05-29T01:27:03.980Z,9.00
2019-05-29T01:27:38.883Z,9.00
2019-05-29T01:28:13.380Z,9.00
2019-05-29T01:28:47.363Z,8.90
2019-05-29T01:29:23.286Z,8.90
2019-05-29T01:29:57.479Z,8.90
2019-05-29T01:30:31.963Z,8.90
2019-05-29T01:31:04.773Z,9.00
2019-05-29T01:31:39.267Z,9.00
2019-05-29T01:32:15.508Z,9.00
2019-05-29T01:32:48.592Z,9.00
2019-05-29T01:33:23.402Z,9.00
2019-05-29T01:33:58.075Z,9.00
2019-05-29T01:34:30.995Z,9.00
2019-05-29T01:35:05.318Z,9.00
2019-05-29T01:35:39.182Z,9.00
2019-05-29T01:36:12.074Z,9.00
2019-05-29T01:36:44.800Z,9.00
2019-05-29T01:37:18.518Z,9.00
2019-05-29T01:37:51.090Z,9.00
2019-05-29T01:38:26.046Z,9.00
2019-05-29T01:39:00.539Z,9.00
2019-05-29T01:39:33.311Z,9.00
2019-05-29T01:40:19.232Z,9.00
2019-05-29T01:40:40.842Z,9.00
2019-05-29T01:41:15.085Z,9.00
2019-05-29T01:41:50.527Z,9.00
2019-05-29T01:42:23.671Z,9.00
2019-05-29T01:42:57.375Z,8.90
2019-05-29T01:43:32.073Z,9.00
2019-05-29T01:44:04.851Z,9.00
2019-05-29T01:44:39.354Z,9.00
2019-05-29T01:45:12.636Z,9.00
2019-05-29T01:45:47.407Z,9.10
2019-05-29T01:46:20.099Z,9.00
2019-05-29T01:46:54.496Z,9.00
2019-05-29T01:47:28.012Z,9.00
2019-05-29T01:48:02.008Z,9.00
2019-05-29T01:48:34.903Z,9.00
2019-05-29T01:49:08.686Z,9.10
2019-05-29T01:49:41.740Z,9.10
2019-05-29T01:50:15.756Z,9.10
2019-05-29T01:50:50.275Z,9.10
2019-05-29T01:51:25.166Z,9.20
2019-05-29T01:51:59.747Z,9.20
2019-05-29T01:52:35.275Z,9.20
2019-05-29T01:53:10.475Z,9.20
2019-05-29T01:53:45.062Z,9.20
2019-05-29T01:54:19.750Z,9.20
2019-05-29T01:54:52.519Z,9.20
2019-05-29T01:55:27.976Z,9.20
2019-05-29T01:56:00.917Z,9.20
2019-05-29T01:56:33.492Z,9.20
2019-05-29T01:57:06.392Z,9.20
2019-05-29T01:57:39.439Z,9.20
2019-05-29T01:58:12.170Z,9.20
2019-05-29T01:58:47.231Z,9.20
2019-05-29T01:59:21.892Z,9.20
2019-05-29T01:59:55.664Z,9.20
2019-05-29T02:00:28.543Z,9.20
2019-05-29T02:01:01.235Z,9.10
2019-05-29T02:01:34.088Z,9.10
2019-05-29T02:02:08.992Z,9.10
2019-05-29T02:02:43.733Z,9.10
2019-05-29T02:03:17.732Z,9.10
2019-05-29T02:03:50.816Z,9.20
2019-05-29T02:04:24.216Z,9.10
2019-05-29T02:04:57.136Z,9.10
2019-05-29T02:05:31.566Z,9.10
2019-05-29T02:06:04.441Z,9.00
2019-05-29T02:06:38.815Z,9.00
2019-05-29T02:07:11.405Z,9.00
2019-05-29T02:07:44.071Z,9.10
2019-05-29T02:08:17.935Z,9.10
2019-05-29T02:08:51.086Z,9.10
2019-05-29T02:09:25.838Z,9.10
2019-05-29T02:09:58.961Z,9.10
2019-05-29T02:10:31.703Z,9.10
2019-05-29T02:11:04.567Z,9.10
2019-05-29T02:11:39.130Z,9.10
2019-05-29T02:12:12.911Z,9.10
2019-05-29T02:12:45.639Z,9.20
2019-05-29T02:13:19.325Z,9.20
2019-05-29T02:13:54.067Z,9.20
2019-05-29T02:14:28.304Z,9.20
2019-05-29T02:15:01.157Z,9.20
2019-05-29T02:15:34.215Z,9.20
2019-05-29T02:16:08.565Z,9.20
2019-05-29T02:16:42.970Z,9.30
2019-05-29T02:17:17.653Z,9.30
2019-05-29T02:17:51.975Z,9.30
2019-05-29T02:18:25.179Z,9.30
2019-05-29T02:18:58.077Z,9.30
2019-05-29T02:19:32.019Z,9.30
2019-05-29T02:20:07.761Z,9.40
2019-05-29T02:20:40.715Z,9.40
2019-05-29T02:21:15.938Z,9.40
2019-05-29T02:21:50.987Z,9.40
2019-05-29T02:22:23.569Z,9.40
2019-05-29T02:22:56.244Z,9.40
2019-05-29T02:23:29.132Z,9.40
2019-05-29T02:24:02.946Z,9.30
2019-05-29T02:24:35.695Z,9.30
2019-05-29T02:25:11.275Z,9.30
2019-05-29T02:25:44.050Z,9.30
2019-05-29T02:26:18.121Z,9.30
2019-05-29T02:26:51.107Z,9.30
2019-05-29T02:27:23.713Z,9.30
2019-05-29T02:27:58.085Z,9.30
2019-05-29T02:28:31.074Z,9.30
2019-05-29T02:29:03.907Z,9.30
2019-05-29T02:29:36.734Z,9.20
2019-05-29T02:30:10.221Z,9.20
2019-05-29T02:30:42.945Z,9.20
2019-05-29T02:31:17.465Z,9.20
2019-05-29T02:31:50.208Z,9.20
2019-05-29T02:32:23.592Z,9.20
2019-05-29T02:32:58.230Z,9.10
2019-05-29T02:33:31.699Z,9.10
2019-05-29T02:34:07.314Z,9.20
2019-05-29T02:34:38.724Z,9.10
2019-05-29T02:35:11.668Z,9.10
2019-05-29T02:35:45.523Z,9.10
2019-05-29T02:36:18.103Z,9.10
2019-05-29T02:36:51.788Z,9.00
2019-05-29T02:37:24.534Z,9.10
2019-05-29T02:37:57.203Z,9.10
2019-05-29T02:38:30.156Z,9.10
2019-05-29T02:39:05.176Z,9.10
2019-05-29T02:39:38.880Z,9.20
2019-05-29T02:40:13.343Z,9.20
2019-05-29T02:40:46.170Z,9.20
2019-05-29T02:41:21.664Z,9.10
2019-05-29T02:41:55.037Z,9.20
2019-05-29T02:42:29.422Z,9.20
2019-05-29T02:43:03.713Z,9.20
2019-05-29T02:43:36.286Z,9.20
2019-05-29T02:44:09.141Z,9.20
2019-05-29T02:44:41.948Z,9.20
2019-05-29T02:45:15.089Z,9.30
2019-05-29T02:45:54.365Z,9.20
2019-05-29T02:46:24.027Z,9.20
2019-05-29T02:46:59.122Z,9.30
2019-05-29T02:47:33.600Z,9.30
2019-05-29T02:48:08.063Z,9.30
2019-05-29T02:48:41.303Z,9.30
2019-05-29T02:49:13.875Z,9.30
2019-05-29T02:49:46.773Z,9.30
2019-05-29T02:50:19.956Z,9.40
2019-05-29T02:50:52.766Z,9.40
2019-05-29T02:51:26.467Z,9.40
2019-05-29T02:52:02.671Z,9.40
2019-05-29T02:52:35.343Z,9.40
2019-05-29T02:53:09.360Z,9.40
2019-05-29T02:53:42.365Z,9.50
2019-05-29T02:54:15.145Z,9.50
2019-05-29T02:54:49.795Z,9.50
2019-05-29T02:55:24.581Z,9.50
2019-05-29T02:55:57.332Z,9.40
2019-05-29T02:56:31.308Z,9.40
2019-05-29T02:57:04.207Z,9.40
2019-05-29T02:57:38.262Z,9.40
2019-05-29T02:58:11.061Z,9.40
2019-05-29T02:58:43.770Z,9.40
2019-05-29T02:59:16.570Z,9.40
2019-05-29T02:59:49.284Z,9.40
2019-05-29T03:00:38.783Z,9.40
2019-05-29T03:01:11.841Z,9.40
2019-05-29T03:01:44.980Z,9.40
2019-05-29T03:02:17.659Z,9.40
2019-05-29T03:02:50.283Z,9.40
2019-05-29T03:03:26.063Z,9.40
2019-05-29T03:03:58.361Z,9.40
2019-05-29T03:04:33.030Z,9.40
2019-05-29T03:05:07.356Z,9.40
2019-05-29T03:05:40.206Z,9.40
2019-05-29T03:06:13.456Z,9.40
2019-05-29T03:06:46.244Z,9.40
2019-05-29T03:07:19.338Z,9.40
2019-05-29T03:07:53.640Z,9.40
2019-05-29T03:08:27.087Z,9.40
2019-05-29T03:09:04.304Z,9.40
2019-05-29T03:09:37.741Z,9.40
2019-05-29T03:10:12.232Z,9.50
2019-05-29T03:10:46.746Z,9.50
2019-05-29T03:11:19.651Z,9.40
2019-05-29T03:11:53.743Z,9.50
2019-05-29T03:12:29.394Z,9.40
2019-05-29T03:13:03.926Z,9.40
2019-05-29T03:13:38.416Z,9.50
2019-05-29T03:14:10.992Z,9.50
2019-05-29T03:14:43.571Z,9.40
2019-05-29T03:15:18.188Z,9.50
2019-05-29T03:16:08.787Z,9.40
2019-05-29T03:16:28.750Z,9.50
2019-05-29T03:17:02.730Z,9.50
2019-05-29T03:17:36.451Z,9.50
2019-05-29T03:18:11.220Z,9.50
2019-05-29T03:18:44.092Z,9.50
2019-05-29T03:19:16.667Z,9.50
2019-05-29T03:19:50.954Z,9.60
2019-05-29T03:20:26.080Z,9.60
2019-05-29T03:21:00.659Z,9.60
2019-05-29T03:21:34.710Z,9.60
2019-05-29T03:22:07.598Z,9.60
2019-05-29T03:22:43.426Z,9.50
2019-05-29T03:23:16.895Z,9.50
2019-05-29T03:23:49.868Z,9.50
2019-05-29T03:24:26.493Z,9.50
2019-05-29T03:25:01.213Z,9.50
2019-05-29T03:25:35.200Z,9.50
2019-05-29T03:26:08.715Z,9.50
2019-05-29T03:26:43.223Z,9.50
2019-05-29T03:27:16.304Z,9.60
2019-05-29T03:27:51.204Z,9.60
2019-05-29T03:28:25.714Z,9.60
2019-05-29T03:28:59.056Z,9.50
2019-05-29T03:29:34.129Z,9.60
2019-05-29T03:30:07.266Z,9.60
2019-05-29T03:30:45.772Z,9.60
2019-05-29T03:31:15.868Z,9.60
2019-05-29T03:31:50.276Z,9.60
2019-05-29T03:32:23.344Z,9.60
2019-05-29T03:32:57.703Z,9.60
2019-05-29T03:33:38.360Z,9.60
2019-05-29T03:34:06.154Z,9.70
2019-05-29T03:34:46.147Z,9.70
2019-05-29T03:35:14.717Z,9.60
2019-05-29T03:35:48.726Z,9.70
2019-05-29T03:36:21.555Z,9.70
2019-05-29T03:36:54.656Z,9.70
2019-05-29T03:37:28.197Z,9.70
2019-05-29T03:38:02.107Z,9.70
2019-05-29T03:38:36.528Z,9.70
2019-05-29T03:39:09.406Z,9.70
2019-05-29T03:39:42.615Z,9.70
2019-05-29T03:40:16.211Z,9.70
2019-05-29T03:40:48.879Z,9.70
2019-05-29T03:41:21.780Z,9.70
2019-05-29T03:41:54.778Z,9.70
2019-05-29T03:42:28.286Z,9.70
2019-05-29T03:43:01.200Z,9.70
2019-05-29T03:43:36.151Z,9.70
2019-05-29T03:44:10.693Z,9.70
2019-05-29T03:44:43.476Z,9.70
2019-05-29T03:45:16.148Z,9.70
2019-05-29T03:45:49.029Z,9.80
2019-05-29T03:46:31.487Z,9.70
2019-05-29T03:46:57.460Z,9.70
2019-05-29T03:47:31.055Z,9.70
2019-05-29T03:48:06.101Z,9.70
2019-05-29T03:48:38.895Z,9.70
2019-05-29T03:49:12.714Z,9.70
2019-05-29T03:49:46.044Z,9.70
2019-05-29T03:50:19.003Z,9.80
2019-05-29T03:50:53.732Z,9.80
2019-05-29T03:51:27.265Z,9.80
2019-05-29T03:52:03.176Z,9.80
2019-05-29T03:52:36.140Z,9.70
2019-05-29T03:53:08.720Z,9.70
2019-05-29T03:53:41.583Z,9.80
2019-05-29T03:54:16.182Z,9.80
2019-05-29T03:54:49.280Z,9.90
2019-05-29T03:55:24.072Z,9.90
2019-05-29T03:55:56.864Z,9.90
2019-05-29T03:56:31.242Z,9.90
2019-05-29T03:57:05.323Z,10.00
2019-05-29T03:57:39.859Z,10.00
2019-05-29T03:58:12.452Z,10.10
2019-05-29T03:58:46.942Z,10.10
2019-05-29T03:59:19.516Z,10.10
2019-05-29T03:59:53.126Z,10.10
2019-05-29T04:00:29.904Z,10.10
2019-05-29T04:01:00.406Z,10.20
2019-05-29T04:01:35.903Z,10.20
2019-05-29T04:02:11.858Z,10.20
2019-05-29T04:02:52.532Z,10.30
2019-05-29T04:03:28.487Z,10.20
2019-05-29T04:04:02.428Z,10.30
2019-05-29T04:04:38.210Z,10.30
2019-05-29T04:05:10.727Z,10.30
2019-05-29T04:05:43.582Z,10.30
2019-05-29T04:06:16.224Z,10.30
2019-05-29T04:06:50.602Z,10.30
2019-05-29T04:07:23.483Z,10.30
2019-05-29T04:07:56.469Z,10.40
2019-05-29T04:08:31.509Z,10.40
2019-05-29T04:09:06.211Z,10.40
2019-05-29T04:09:38.969Z,10.40
2019-05-29T04:10:11.727Z,10.50
2019-05-29T04:10:44.825Z,10.50
2019-05-29T04:11:18.188Z,10.50
2019-05-29T04:11:50.983Z,10.50
2019-05-29T04:12:24.222Z,10.50
2019-05-29T04:13:00.828Z,10.60
2019-05-29T04:13:34.669Z,10.50
2019-05-29T04:14:09.320Z,10.60
2019-05-29T04:14:42.419Z,10.50
2019-05-29T04:15:16.844Z,10.50
2019-05-29T04:15:51.983Z,10.60
2019-05-29T04:16:25.495Z,10.60
2019-05-29T04:17:00.474Z,10.60
2019-05-29T04:17:37.958Z,10.60
2019-05-29T04:18:11.093Z,10.60
2019-05-29T04:18:46.305Z,10.70
2019-05-29T04:19:19.939Z,10.70
2019-05-29T04:19:52.517Z,10.70
2019-05-29T04:20:25.095Z,10.70
2019-05-29T04:21:01.716Z,10.70
2019-05-29T04:21:38.424Z,10.80
2019-05-29T04:22:12.795Z,10.70
2019-05-29T04:22:45.730Z,10.80
2019-05-29T04:23:22.280Z,10.70
2019-05-29T04:23:56.747Z,10.70
2019-05-29T04:24:31.983Z,10.70
2019-05-29T04:25:05.427Z,10.70
2019-05-29T04:25:42.643Z,10.70
2019-05-29T04:26:17.532Z,10.70
2019-05-29T04:26:52.721Z,10.70
2019-05-29T04:27:27.851Z,10.60
2019-05-29T04:28:03.341Z,10.60
2019-05-29T04:28:37.338Z,10.60
2019-05-29T04:29:13.799Z,10.50
2019-05-29T04:29:47.646Z,10.50
2019-05-29T04:30:21.705Z,10.50
2019-05-29T04:30:54.452Z,10.50
2019-05-29T04:31:28.110Z,10.50
2019-05-29T04:32:01.478Z,10.60
2019-05-29T04:32:34.493Z,10.60
2019-05-29T04:33:07.065Z,10.60
2019-05-29T04:33:39.984Z,10.60
2019-05-29T04:34:13.014Z,10.60
2019-05-29T04:34:46.047Z,10.60
2019-05-29T04:35:18.756Z,10.60
2019-05-29T04:35:51.353Z,10.60
2019-05-29T04:36:24.252Z,10.60
2019-05-29T04:36:56.971Z,10.60
2019-05-29T04:37:30.307Z,10.60
2019-05-29T04:38:03.618Z,10.60
2019-05-29T04:38:38.490Z,10.60
2019-05-29T04:39:14.332Z,10.60
2019-05-29T04:39:47.024Z,10.60
2019-05-29T04:40:19.856Z,10.60
2019-05-29T04:40:52.852Z,10.60
2019-05-29T04:41:25.910Z,10.70
2019-05-29T04:41:58.675Z,10.70
2019-05-29T04:42:33.475Z,10.70
2019-05-29T04:43:06.481Z,10.70
2019-05-29T04:43:39.976Z,10.80
2019-05-29T04:44:12.957Z,10.80
2019-05-29T04:44:46.025Z,10.70
2019-05-29T04:45:20.495Z,10.80
2019-05-29T04:45:54.771Z,10.80
2019-05-29T04:46:27.698Z,10.90
2019-05-29T04:47:10.993Z,10.90
2019-05-29T04:47:37.333Z,10.90
2019-05-29T04:48:10.292Z,11.00
2019-05-29T04:48:43.093Z,11.00
2019-05-29T04:49:19.989Z,11.00
2019-05-29T04:49:50.208Z,11.00
2019-05-29T04:50:22.799Z,11.00
2019-05-29T04:50:55.400Z,11.00
2019-05-29T04:51:29.119Z,11.00
2019-05-29T04:52:01.883Z,11.00
2019-05-29T04:52:37.663Z,11.10
2019-05-29T04:53:13.047Z,11.20
2019-05-29T04:53:45.627Z,11.10
2019-05-29T04:54:19.782Z,11.20
2019-05-29T04:54:53.332Z,11.30
2019-05-29T04:55:26.410Z,11.30
2019-05-29T04:55:59.747Z,11.30
2019-05-29T04:56:32.794Z,11.30
2019-05-29T04:57:05.558Z,11.30
2019-05-29T04:57:39.561Z,11.40
2019-05-29T04:58:12.702Z,11.40
2019-05-29T04:58:45.983Z,11.30
2019-05-29T04:59:19.393Z,11.30
2019-05-29T04:59:52.038Z,11.30
2019-05-29T05:00:24.863Z,11.30
2019-05-29T05:00:59.686Z,11.30
2019-05-29T05:01:35.073Z,11.30
2019-05-29T05:02:08.021Z,11.20
2019-05-29T05:02:40.890Z,11.20
2019-05-29T05:03:13.611Z,11.20
2019-05-29T05:03:46.683Z,11.20
2019-05-29T05:04:19.330Z,11.30
2019-05-29T05:04:52.374Z,11.30
2019-05-29T05:05:25.583Z,11.30
2019-05-29T05:05:58.613Z,11.40
2019-05-29T05:06:33.272Z,11.50
2019-05-29T05:07:06.034Z,11.50
2019-05-29T05:07:39.627Z,11.60
2019-05-29T05:08:14.546Z,11.60
2019-05-29T05:08:48.655Z,11.70
2019-05-29T05:09:23.224Z,11.70
2019-05-29T05:09:56.606Z,11.70
2019-05-29T05:10:37.775Z,11.80
2019-05-29T05:11:11.095Z,11.80
2019-05-29T05:11:43.706Z,11.90
2019-05-29T05:12:16.326Z,11.80
2019-05-29T05:12:48.964Z,11.80
2019-05-29T05:13:21.567Z,11.90
2019-05-29T05:13:54.482Z,12.00
2019-05-29T05:14:27.762Z,12.00
2019-05-29T05:15:00.330Z,12.10
2019-05-29T05:15:35.852Z,12.20
2019-05-29T05:16:10.471Z,12.20
2019-05-29T05:16:43.471Z,12.20
2019-05-29T05:17:26.347Z,12.20
2019-05-29T05:17:53.956Z,12.30
2019-05-29T05:18:26.968Z,12.30
2019-05-29T05:18:59.954Z,12.40
2019-05-29T05:19:35.948Z,12.40
2019-05-29T05:20:10.753Z,12.50
2019-05-29T05:20:45.170Z,12.50
2019-05-29T05:21:19.362Z,12.60
2019-05-29T05:21:52.926Z,12.70
2019-05-29T05:22:26.251Z,12.80
2019-05-29T05:23:00.671Z,12.70
2019-05-29T05:23:36.086Z,12.70
2019-05-29T05:24:10.044Z,12.70
2019-05-29T05:24:44.151Z,12.90
2019-05-29T05:25:17.446Z,12.90
2019-05-29T05:25:51.165Z,13.00
2019-05-29T05:26:24.187Z,13.10
2019-05-29T05:26:59.614Z,13.10
2019-05-29T05:27:32.278Z,13.10
2019-05-29T05:28:05.604Z,13.10
2019-05-29T05:28:38.715Z,13.20
2019-05-29T05:29:11.737Z,13.20
2019-05-29T05:29:45.477Z,13.20
2019-05-29T05:30:19.374Z,13.30
2019-05-29T05:30:52.241Z,13.30
2019-05-29T05:31:25.299Z,13.30
2019-05-29T05:31:58.452Z,13.20
2019-05-29T05:32:32.548Z,13.30
2019-05-29T05:33:05.925Z,13.40
2019-05-29T05:33:38.679Z,13.40
2019-05-29T05:34:11.538Z,13.50
2019-05-29T05:34:44.303Z,13.60
2019-05-29T05:35:17.190Z,13.60
2019-05-29T05:35:49.818Z,13.70
2019-05-29T05:36:22.846Z,13.80
2019-05-29T05:36:55.721Z,13.90
2019-05-29T05:37:28.794Z,14.00
2019-05-29T05:38:01.607Z,14.00
2019-05-29T05:38:36.781Z,14.20
2019-05-29T05:39:09.604Z,14.40
2019-05-29T05:39:42.578Z,14.60
2019-05-29T05:40:18.365Z,14.80
2019-05-29T05:40:54.564Z,15.00
2019-05-29T05:41:30.912Z,15.30
2019-05-29T05:42:05.327Z,15.50
2019-05-29T05:42:38.935Z,15.60
2019-05-29T05:43:23.541Z,15.80
2019-05-29T05:43:46.700Z,15.90
2019-05-29T05:44:21.146Z,16.10
2019-05-29T05:44:55.974Z,16.10
2019-05-29T05:45:31.021Z,16.10
2019-05-29T05:46:04.022Z,16.20
2019-05-29T05:46:39.221Z,16.20
2019-05-29T05:47:11.992Z,16.40
2019-05-29T05:47:56.993Z,16.30
2019-05-29T05:48:22.003Z,16.30
2019-05-29T05:48:56.925Z,16.10
2019-05-29T05:49:31.482Z,15.90
2019-05-29T05:50:04.516Z,15.90
2019-05-29T05:50:37.624Z,15.80
2019-05-29T05:51:11.786Z,15.70
2019-05-29T05:51:45.993Z,15.50
2019-05-29T05:52:19.011Z,15.30
2019-05-29T05:52:52.089Z,15.10
2019-05-29T05:53:24.942Z,15.00
2019-05-29T05:53:59.875Z,15.00
2019-05-29T05:54:35.318Z,14.90
2019-05-29T05:55:08.381Z,14.90
2019-05-29T05:55:41.849Z,14.90
2019-05-29T05:56:14.973Z,14.90
2019-05-29T05:56:53.322Z,14.90
2019-05-29T05:57:27.275Z,14.90
2019-05-29T05:58:02.017Z,14.90
2019-05-29T05:58:35.715Z,15.10
2019-05-29T05:59:09.535Z,15.20
2019-05-29T05:59:42.713Z,15.30
2019-05-29T06:00:27.873Z,15.20
2019-05-29T06:01:00.767Z,15.20
2019-05-29T06:01:34.151Z,15.20
2019-05-29T06:02:07.966Z,15.20
2019-05-29T06:02:42.154Z,15.10
2019-05-29T06:03:15.246Z,15.20
2019-05-29T06:03:48.069Z,15.40
2019-05-29T06:04:21.142Z,15.40
2019-05-29T06:04:55.779Z,15.60
2019-05-29T06:05:28.881Z,15.60
2019-05-29T06:06:03.776Z,15.70
2019-05-29T06:06:38.028Z,15.70
2019-05-29T06:07:10.818Z,15.70
2019-05-29T06:07:43.997Z,15.70
2019-05-29T06:08:18.402Z,15.70
2019-05-29T06:08:52.792Z,15.60
2019-05-29T06:09:27.207Z,15.70
2019-05-29T06:10:02.803Z,15.70
2019-05-29T06:10:38.197Z,15.70
2019-05-29T06:11:11.451Z,15.80
2019-05-29T06:11:44.245Z,15.90
2019-05-29T06:12:17.395Z,15.70
2019-05-29T06:12:52.261Z,15.60
2019-05-29T06:13:25.030Z,15.50
2019-05-29T06:14:00.603Z,15.60
2019-05-29T06:14:36.373Z,15.30
2019-05-29T06:15:11.079Z,15.10
2019-05-29T06:15:45.125Z,14.90
2019-05-29T06:16:18.593Z,14.80
2019-05-29T06:16:51.285Z,14.80
2019-05-29T06:17:24.074Z,14.80
2019-05-29T06:18:19.478Z,14.80
2019-05-29T06:18:32.921Z,14.90
2019-05-29T06:19:06.537Z,15.00
2019-05-29T06:19:41.155Z,15.00
2019-05-29T06:20:15.646Z,15.10
2019-05-29T06:20:49.479Z,15.10
2019-05-29T06:21:22.338Z,15.10
2019-05-29T06:21:56.584Z,15.10
2019-05-29T06:22:31.094Z,15.10
2019-05-29T06:23:05.082Z,15.10
2019-05-29T06:23:41.485Z,15.10
2019-05-29T06:24:14.625Z,15.00
2019-05-29T06:24:47.709Z,14.90
2019-05-29T06:25:20.817Z,14.80
2019-05-29T06:25:59.956Z,14.80
2019-05-29T06:26:31.150Z,14.70
2019-05-29T06:27:06.960Z,14.60
2019-05-29T06:27:41.241Z,14.50
2019-05-29T06:28:14.472Z,14.50
2019-05-29T06:28:47.548Z,14.50
2019-05-29T06:29:20.634Z,14.40
2019-05-29T06:29:53.875Z,14.30
2019-05-29T06:30:27.235Z,14.20
2019-05-29T06:31:00.028Z,14.20
2019-05-29T06:31:33.389Z,14.20
2019-05-29T06:32:06.178Z,14.10
2019-05-29T06:32:39.452Z,14.20
2019-05-29T06:33:12.225Z,14.20
2019-05-29T06:33:45.254Z,14.20
2019-05-29T06:34:20.155Z,14.20
2019-05-29T06:34:53.941Z,14.20
2019-05-29T06:35:30.467Z,14.10
2019-05-29T06:36:03.439Z,14.00
2019-05-29T06:36:37.872Z,14.00
2019-05-29T06:37:11.020Z,13.90
2019-05-29T06:37:43.856Z,13.90
2019-05-29T06:38:17.172Z,13.70
2019-05-29T06:38:51.609Z,13.70
2019-05-29T06:39:26.507Z,13.50
2019-05-29T06:39:59.475Z,13.50
2019-05-29T06:40:36.292Z,13.40
2019-05-29T06:41:11.289Z,13.40
2019-05-29T06:41:44.407Z,13.40
2019-05-29T06:42:18.483Z,13.40
2019-05-29T06:42:52.814Z,13.50
2019-05-29T06:43:26.479Z,13.50
2019-05-29T06:43:59.100Z,13.40
2019-05-29T06:44:32.080Z,13.50
2019-05-29T06:45:05.651Z,13.50
2019-05-29T06:45:42.068Z,13.60
2019-05-29T06:46:16.029Z,13.60
2019-05-29T06:46:50.216Z,13.60
2019-05-29T06:47:23.511Z,13.50
2019-05-29T06:47:56.167Z,13.50
2019-05-29T06:49:05.620Z,13.50
2019-05-29T06:49:38.342Z,13.50
2019-05-29T06:50:11.213Z,13.50
2019-05-29T06:50:44.447Z,13.50
2019-05-29T06:51:19.009Z,13.40
2019-05-29T06:51:51.771Z,13.50
2019-05-29T06:52:24.846Z,13.50
2019-05-29T06:52:58.107Z,13.50
2019-05-29T06:53:33.056Z,13.50
2019-05-29T06:54:06.412Z,13.50
2019-05-29T06:54:39.976Z,13.50
2019-05-29T06:55:12.888Z,13.50
2019-05-29T06:55:54.198Z,13.60
2019-05-29T06:56:23.389Z,13.50
2019-05-29T06:56:58.016Z,13.50
2019-05-29T06:57:30.821Z,13.40
2019-05-29T06:58:03.924Z,13.30
2019-05-29T06:58:37.950Z,13.30
2019-05-29T06:59:12.505Z,13.30
2019-05-29T06:59:48.969Z,13.30
2019-05-29T07:00:34.797Z,13.20
2019-05-29T07:00:57.488Z,13.10
2019-05-29T07:01:30.541Z,13.10
2019-05-29T07:02:06.605Z,13.10
2019-05-29T07:02:40.398Z,13.10
2019-05-29T07:03:13.548Z,13.10
2019-05-29T07:03:46.203Z,13.10
2019-05-29T07:04:18.988Z,13.20
2019-05-29T07:04:52.034Z,13.20
2019-05-29T07:05:26.470Z,13.20
2019-05-29T07:06:02.358Z,13.20
2019-05-29T07:06:36.858Z,13.30
2019-05-29T07:07:09.605Z,13.40
2019-05-29T07:07:42.512Z,13.50
2019-05-29T07:08:20.914Z,13.60
2019-05-29T07:08:50.366Z,13.60
2019-05-29T07:09:23.351Z,13.70
2019-05-29T07:09:55.975Z,13.80
2019-05-29T07:10:28.656Z,13.90
2019-05-29T07:11:01.576Z,14.00
2019-05-29T07:11:37.082Z,14.00
2019-05-29T07:12:09.955Z,14.10
2019-05-29T07:12:42.855Z,14.20
2019-05-29T07:13:15.658Z,14.30
2019-05-29T07:13:50.850Z,14.40
2019-05-29T07:14:24.805Z,14.50
2019-05-29T07:14:58.308Z,14.60
2019-05-29T07:15:31.033Z,14.60
2019-05-29T07:16:03.814Z,14.70
2019-05-29T07:16:45.427Z,14.70
2019-05-29T07:17:12.799Z,14.80
2019-05-29T07:17:46.599Z,14.90
2019-05-29T07:18:20.541Z,14.90
2019-05-29T07:19:24.018Z,15.00
2019-05-29T07:19:47.195Z,15.10
2019-05-29T07:20:05.271Z,15.10
2019-05-29T07:20:40.640Z,15.10
2019-05-29T07:21:13.526Z,15.10
2019-05-29T07:21:47.236Z,15.10
2019-05-29T07:22:20.237Z,15.00
2019-05-29T07:22:53.109Z,15.00
2019-05-29T07:23:25.979Z,15.00
2019-05-29T07:23:58.850Z,14.90